Time;durP1;ratioP1;P1;durP2;ratioP2;P2;SDS_P1;SDS_P2;PMS_P1;PMS_P2;Temp;Humidity;BMP_temperature;BMP_pressure;BME280_temperature;BME280_humidity;BME280_pressure;Samples;Min_cycle;Max_cycle;Signal;HPM_P1;HPM_P2
2022/12/08 06:01:51;;;;;;;10.53;3.92;;;;;;;2.42;71.14;100635.70;1854461;74;22252;-68
2022/12/08 06:04:17;;;;;;;9.85;3.95;;;;;;;2.54;70.66;100633.04;1841929;75;21530;-68
2022/12/08 06:06:44;;;;;;;9.65;3.52;;;;;;;2.60;70.45;100634.92;1852339;75;22728;-68
2022/12/08 06:09:11;;;;;;;8.58;3.87;;;;;;;2.60;70.30;100639.28;1838055;75;21565;-67
2022/12/08 06:11:38;;;;;;;9.40;3.85;;;;;;;2.52;70.45;100642.66;1841505;75;21077;-68
2022/12/08 06:14:04;;;;;;;11.10;5.22;;;;;;;2.59;70.36;100646.24;1844251;75;21006;-67
2022/12/08 06:16:31;;;;;;;12.63;5.30;;;;;;;2.57;70.34;100657.16;1817732;76;21046;-68
2022/12/08 06:18:58;;;;;;;11.28;4.65;;;;;;;2.54;70.35;100649.92;1848818;75;21236;-68
2022/12/08 06:21:24;;;;;;;13.68;5.65;;;;;;;2.52;70.53;100663.01;1841239;75;21217;-68
2022/12/08 06:23:52;;;;;;;14.98;5.80;;;;;;;2.54;70.56;100667.68;1836853;77;21566;-67
2022/12/08 06:26:19;;;;;;;10.43;5.10;;;;;;;2.50;70.77;100671.76;1855047;75;20976;-67
2022/12/08 06:28:45;;;;;;;14.98;5.78;;;;;;;2.51;70.85;100666.97;1853112;75;21069;-68
2022/12/08 06:31:18;;;;;;;10.35;4.92;;;;;;;2.59;70.75;100679.19;1850465;75;21497;-68
2022/12/08 06:33:45;;;;;;;12.53;4.90;;;;;;;2.70;70.58;100676.95;1849160;75;21844;-67
2022/12/08 06:36:13;;;;;;;9.70;4.97;;;;;;;2.85;69.96;100678.52;1853515;75;21052;-67
2022/12/08 06:38:39;;;;;;;16.23;11.85;;;;;;;2.85;69.97;100680.66;1844468;75;20994;-68
2022/12/08 06:41:06;;;;;;;20.52;13.75;;;;;;;2.83;70.04;100679.05;1850394;75;21002;-68
2022/12/08 06:43:33;;;;;;;13.62;5.50;;;;;;;2.83;70.10;100681.64;1855703;75;21221;-68
2022/12/08 06:46:33;;;;;;;15.53;7.12;;;;;;;2.78;70.49;100676.64;1778185;78;23349;-67
2022/12/08 06:49:00;;;;;;;11.68;5.60;;;;;;;2.84;70.01;100682.88;1745413;80;20936;-67
2022/12/08 06:51:26;;;;;;;12.43;5.72;;;;;;;2.83;69.98;100681.64;1728247;81;21236;-67
2022/12/08 06:53:53;;;;;;;12.18;5.58;;;;;;;2.79;70.08;100683.07;1731220;81;21026;-67
2022/12/08 06:56:21;;;;;;;13.80;5.65;;;;;;;2.83;69.80;100688.14;1727861;81;21093;-67
2022/12/08 06:58:47;;;;;;;14.65;4.58;;;;;;;2.89;69.70;100689.16;1714611;81;21160;-68
2022/12/08 07:01:14;;;;;;;11.78;6.03;;;;;;;2.95;69.61;100691.50;1714569;81;21003;-67
2022/12/08 07:03:42;;;;;;;13.65;6.58;;;;;;;3.02;69.66;100694.22;1726987;81;21227;-67
2022/12/08 07:06:16;;;;;;;12.95;6.62;;;;;;;3.05;69.75;100690.19;1706931;82;20966;-68
2022/12/08 07:08:44;;;;;;;19.17;13.13;;;;;;;3.11;69.86;100691.23;1714451;81;20958;-68
2022/12/08 07:11:11;;;;;;;21.07;13.53;;;;;;;3.14;69.67;100697.60;1690196;83;21046;-68
2022/12/08 07:13:39;;;;;;;13.05;5.20;;;;;;;3.14;69.42;100695.44;1707884;83;21080;-67
2022/12/08 07:16:07;;;;;;;12.60;5.50;;;;;;;3.11;69.23;100704.66;1710432;83;21275;-68
2022/12/08 07:18:34;;;;;;;13.75;5.97;;;;;;;3.02;69.15;100702.02;1705376;83;21015;-67
2022/12/08 07:21:08;;;;;;;12.58;5.85;;;;;;;2.95;69.10;100706.64;1698103;83;21145;-68
2022/12/08 07:23:35;;;;;;;10.93;4.92;;;;;;;2.93;69.07;100716.73;1691834;84;21045;-67
2022/12/08 07:26:03;;;;;;;20.52;11.40;;;;;;;2.95;68.96;100720.09;1705247;83;21120;-68
2022/12/08 07:28:34;;;;;;;8.43;4.42;;;;;;;2.98;68.92;100719.50;1708092;83;21252;-68
2022/12/08 07:31:03;;;;;;;17.37;11.60;;;;;;;2.97;68.99;100720.41;1697668;83;21038;-67
2022/12/08 07:33:31;;;;;;;12.90;4.67;;;;;;;2.96;69.22;100720.03;1701486;83;21153;-68
2022/12/08 07:36:00;;;;;;;8.88;4.00;;;;;;;2.96;69.36;100725.23;1698736;83;21007;-68
2022/12/08 07:38:27;;;;;;;21.62;14.47;;;;;;;2.97;69.29;100719.11;1705294;83;21050;-68
2022/12/08 07:40:54;;;;;;;11.63;5.28;;;;;;;2.96;69.25;100723.09;1709122;83;21550;-68
2022/12/08 07:43:20;;;;;;;13.55;7.22;;;;;;;2.91;69.23;100723.75;1710248;83;22224;-68
2022/12/08 07:45:47;;;;;;;12.80;5.97;;;;;;;2.86;69.29;100725.23;1688506;83;21064;-68
2022/12/08 07:48:14;;;;;;;19.65;14.10;;;;;;;2.91;69.37;100732.39;1741061;80;21505;-67
2022/12/08 07:50:41;;;;;;;13.13;5.42;;;;;;;2.90;69.24;100730.69;1747829;82;22261;-67
2022/12/08 07:53:08;;;;;;;12.58;5.80;;;;;;;2.91;69.22;100733.69;1699146;83;21835;-68
2022/12/08 07:55:40;;;;;;;9.75;5.40;;;;;;;3.01;69.10;100722.88;1707130;82;22245;-68
2022/12/08 07:58:07;;;;;;;12.30;6.53;;;;;;;3.12;69.03;100733.67;1745951;80;21031;-67
2022/12/08 09:45:50;;;;;;;12.63;5.78;;;;;;;3.13;68.84;100769.17;1781213;78;22631;-67
2022/12/08 09:50:56;;;;;;;17.90;12.90;;;;;;;3.46;68.09;100762.96;1783757;78;21921;-69
2022/12/08 09:53:41;;;;;;;11.40;5.25;;;;;;;3.57;67.64;100766.84;1772163;80;22132;-69
2022/12/08 09:56:16;;;;;;;12.15;6.08;;;;;;;3.59;67.42;100766.30;1756942;79;21175;-68
2022/12/08 09:59:07;;;;;;;14.78;6.85;;;;;;;3.59;67.26;100761.10;1772985;80;21081;-69
2022/12/08 10:01:37;;;;;;;13.10;6.03;;;;;;;3.48;66.99;100758.96;1759752;79;21077;-67
2022/12/08 10:04:07;;;;;;;15.18;7.03;;;;;;;3.27;67.54;100755.56;1786472;80;21082;-67
2022/12/08 10:06:39;;;;;;;15.93;7.85;;;;;;;3.26;67.83;100759.06;1766830;79;21509;-67
2022/12/08 10:09:26;;;;;;;12.95;6.85;;;;;;;3.15;68.04;100755.17;1758382;79;21548;-68
2022/12/08 10:12:22;;;;;;;15.80;8.23;;;;;;;3.16;68.10;100754.28;1774609;80;21074;-68
2022/12/08 10:14:54;;;;;;;13.00;7.08;;;;;;;3.16;68.14;100749.52;1778573;78;21345;-68
2022/12/08 10:17:34;;;;;;;11.85;5.90;;;;;;;3.15;68.13;100751.28;1692211;81;21503;-68
2022/12/08 10:20:17;;;;;;;12.98;5.37;;;;;;;3.19;68.12;100749.38;1676348;84;21070;-67
2022/12/08 10:22:51;;;;;;;14.07;6.72;;;;;;;3.29;67.95;100753.27;1705919;81;22245;-68
2022/12/08 10:25:21;;;;;;;16.65;6.03;;;;;;;3.37;67.71;100755.55;1737891;81;21002;-68
2022/12/08 10:27:48;;;;;;;19.35;13.95;;;;;;;3.42;67.70;100755.35;1725677;82;21586;-68
2022/12/08 10:30:17;;;;;;;13.13;7.72;;;;;;;3.44;67.91;100752.22;1717769;82;21066;-68
2022/12/08 10:32:47;;;;;;;14.00;6.65;;;;;;;3.49;67.87;100756.76;1722462;82;21085;-68
2022/12/08 10:35:15;;;;;;;15.18;7.92;;;;;;;3.50;67.71;100763.20;1704161;82;21588;-69
2022/12/08 10:37:56;;;;;;;13.08;6.25;;;;;;;3.50;67.59;100756.69;1706273;82;21062;-68
2022/12/08 10:40:23;;;;;;;15.70;7.80;;;;;;;3.49;67.47;100760.66;1710410;82;21025;-68
2022/12/08 10:42:52;;;;;;;18.92;7.85;;;;;;;3.47;67.50;100758.13;1715275;82;21025;-68
2022/12/08 10:45:28;;;;;;;12.65;6.75;;;;;;;3.44;67.34;100762.16;1719403;82;21070;-68
2022/12/08 10:48:05;;;;;;;11.60;6.85;;;;;;;3.32;67.21;100763.55;1706722;82;21207;-69
2022/12/08 10:50:48;;;;;;;14.53;8.20;;;;;;;3.26;67.24;100762.53;1715629;82;21389;-69
2022/12/08 10:53:22;;;;;;;15.38;7.55;;;;;;;3.28;67.17;100767.20;1711577;82;21042;-69
2022/12/08 10:56:02;;;;;;;14.60;6.83;;;;;;;3.32;67.25;100770.52;1711579;82;21082;-69
2022/12/08 10:58:39;;;;;;;14.23;7.80;;;;;;;3.34;67.28;100766.91;1701314;83;21070;-69
2022/12/08 11:01:25;;;;;;;16.67;7.55;;;;;;;3.32;67.46;100769.21;1704533;82;21706;-69
2022/12/08 11:03:58;;;;;;;11.83;5.97;;;;;;;3.29;67.49;100766.73;1698818;82;21031;-69
2022/12/08 11:06:35;;;;;;;9.90;5.65;;;;;;;3.27;67.65;100768.10;1712683;82;21102;-68
2022/12/08 11:09:12;;;;;;;17.32;12.75;;;;;;;3.23;67.67;100763.09;1699672;82;21132;-69
2022/12/08 11:11:52;;;;;;;13.03;5.40;;;;;;;3.22;67.75;100764.86;1708753;82;21085;-69
2022/12/08 11:14:44;;;;;;;13.32;5.97;;;;;;;3.19;67.70;100766.75;1714399;82;22191;-66
2022/12/08 11:17:22;;;;;;;14.00;5.78;;;;;;;3.15;67.72;100764.74;1705740;82;21083;-68
2022/12/08 11:19:58;;;;;;;11.78;5.00;;;;;;;3.11;67.58;100772.27;1694412;82;21079;-67
2022/12/08 11:22:32;;;;;;;9.13;3.98;;;;;;;3.02;67.52;100767.02;1708122;82;21079;-68
2022/12/08 11:25:10;;;;;;;10.38;5.53;;;;;;;2.98;67.56;100762.86;1709425;82;21050;-67
2022/12/08 11:27:43;;;;;;;12.05;4.97;;;;;;;2.96;67.52;100761.63;1709221;82;21113;-67
2022/12/08 11:30:21;;;;;;;17.40;12.30;;;;;;;2.95;67.49;100769.02;1704441;82;21105;-68
2022/12/08 11:33:21;;;;;;;10.65;5.15;;;;;;;2.90;67.71;100763.64;1705160;82;21114;-68
2022/12/08 11:35:58;;;;;;;11.08;5.03;;;;;;;2.83;67.88;100750.52;1702346;82;21113;-68
2022/12/08 11:38:26;;;;;;;10.18;5.15;;;;;;;2.82;68.08;100752.72;1681766;82;21066;-68
2022/12/08 11:41:03;;;;;;;11.60;5.53;;;;;;;2.84;68.36;100750.89;1705671;82;21295;-68
2022/12/08 11:43:45;;;;;;;13.35;6.65;;;;;;;2.86;68.51;100749.93;1708132;82;21051;-68
2022/12/08 11:46:26;;;;;;;12.95;6.72;;;;;;;2.91;68.53;100747.14;1713012;82;21388;-69
2022/12/08 11:49:00;;;;;;;13.22;6.25;;;;;;;2.92;68.53;100743.16;1701324;82;21089;-68
2022/12/08 11:51:34;;;;;;;12.50;6.05;;;;;;;2.96;68.45;100745.19;1701288;82;21244;-69
2022/12/08 11:54:06;;;;;;;18.15;12.40;;;;;;;2.96;68.45;100741.30;1697051;82;21150;-69
2022/12/08 11:56:37;;;;;;;12.37;4.83;;;;;;;3.05;68.39;100734.85;1709136;82;21022;-69
2022/12/08 11:59:40;;;;;;;11.30;5.97;;;;;;;3.18;68.21;100736.01;1708644;82;21061;-69
2022/12/08 12:02:15;;;;;;;11.78;5.87;;;;;;;3.27;68.08;100737.36;1720535;82;21125;-69
2022/12/08 12:04:50;;;;;;;16.05;7.78;;;;;;;3.30;67.71;100737.23;1718962;82;21527;-69
2022/12/08 12:07:39;;;;;;;;;;;;;;;3.27;67.86;100735.59;1721672;82;21156;-69
2022/12/08 12:10:46;;;;;;;12.90;5.67;;;;;;;3.28;67.80;100733.39;1722301;82;20168;-66
2022/12/08 12:13:52;;;;;;;13.05;5.45;;;;;;;3.26;67.79;100730.45;1712965;82;21158;-67
2022/12/08 12:16:53;;;;;;;13.18;5.75;;;;;;;3.25;67.89;100737.89;1689453;83;21028;-67
2022/12/08 12:19:19;;;;;;;11.65;6.03;;;;;;;3.19;67.86;100732.48;1713744;82;21069;-67
2022/12/08 12:21:51;;;;;;;13.20;6.15;;;;;;;3.12;67.62;100734.97;1709799;82;21240;-67
2022/12/08 12:24:32;;;;;;;12.45;5.28;;;;;;;3.03;67.75;100729.72;1706672;83;21033;-67
2022/12/08 12:27:15;;;;;;;16.70;11.25;;;;;;;3.00;67.79;100731.14;1727954;81;21074;-67
2022/12/08 12:29:49;;;;;;;9.28;3.77;;;;;;;2.94;67.90;100736.16;1713660;83;21068;-68
2022/12/08 12:32:15;;;;;;;11.22;4.87;;;;;;;2.97;67.81;100732.10;1701977;83;21099;-69
2022/12/08 12:34:52;;;;;;;12.13;5.28;;;;;;;2.98;67.56;100740.77;1683752;83;21267;-69
2022/12/08 12:37:25;;;;;;;10.70;5.90;;;;;;;3.00;67.55;100733.73;1729570;81;20987;-69
2022/12/08 12:40:02;;;;;;;18.67;12.45;;;;;;;2.98;67.58;100731.67;1731188;81;21578;-68
2022/12/08 12:42:40;;;;;;;9.50;3.77;;;;;;;2.96;67.99;100733.50;1710310;82;21097;-69
2022/12/08 12:45:21;;;;;;;10.30;4.75;;;;;;;2.91;67.96;100740.65;1710838;82;21090;-69
2022/12/08 12:47:59;;;;;;;12.03;5.12;;;;;;;2.83;68.12;100746.63;1713268;82;21246;-67
2022/12/08 12:50:42;;;;;;;10.68;4.58;;;;;;;2.76;68.25;100753.83;1702669;82;21027;-66
2022/12/08 12:53:20;;;;;;;11.83;5.47;;;;;;;2.69;68.46;100757.13;1706560;82;21105;-68
2022/12/08 12:56:00;;;;;;;16.27;6.37;;;;;;;2.60;68.52;100754.44;1709500;82;21054;-68
2022/12/08 12:58:32;;;;;;;14.58;7.87;;;;;;;2.56;68.72;100757.24;1706584;82;21167;-68
2022/12/08 13:01:22;;;;;;;13.43;7.55;;;;;;;2.54;68.92;100757.30;1704268;82;22272;-68
2022/12/08 13:04:08;;;;;;;14.25;5.83;;;;;;;2.58;69.01;100761.91;1701177;82;21018;-68
2022/12/08 13:06:47;;;;;;;17.52;12.15;;;;;;;2.67;68.72;100753.73;1705650;82;21555;-67
2022/12/08 13:09:30;;;;;;;12.25;6.60;;;;;;;2.76;68.66;100756.42;1713294;82;21097;-68
2022/12/08 13:12:01;;;;;;;11.90;5.55;;;;;;;2.96;68.51;100756.89;1716597;82;21050;-68
2022/12/08 13:14:30;;;;;;;14.10;7.15;;;;;;;3.07;68.66;100762.45;1709329;82;21954;-68
2022/12/08 13:17:00;;;;;;;14.90;7.30;;;;;;;3.14;68.60;100762.61;1710209;82;21051;-68
2022/12/08 13:19:29;;;;;;;13.08;6.85;;;;;;;3.16;68.30;100762.08;1709309;82;21065;-68
2022/12/08 13:21:56;;;;;;;13.00;6.28;;;;;;;3.00;68.51;100762.34;1721446;82;21101;-68
2022/12/08 13:24:30;;;;;;;11.55;6.53;;;;;;;2.96;68.45;100759.49;1702360;82;21129;-68
2022/12/08 13:27:08;;;;;;;13.70;5.30;;;;;;;2.91;68.65;100755.78;1703548;82;21249;-68
2022/12/08 13:29:38;;;;;;;12.75;6.55;;;;;;;2.99;68.09;100759.34;1716830;82;21050;-67
2022/12/08 13:32:14;;;;;;;13.93;6.65;;;;;;;2.98;68.11;100766.77;1712268;82;21647;-67
2022/12/08 13:34:57;;;;;;;12.50;5.72;;;;;;;2.95;68.20;100760.39;1713553;82;21106;-67
2022/12/08 13:37:43;;;;;;;9.83;5.75;;;;;;;2.97;68.08;100763.30;1708119;82;21090;-68
2022/12/08 13:40:24;;;;;;;14.13;6.25;;;;;;;3.04;68.01;100757.38;1705170;82;21289;-68
2022/12/08 13:43:20;;;;;;;8.55;5.35;;;;;;;3.05;68.00;100766.89;1697934;82;21050;-68
2022/12/08 13:45:46;;;;;;;10.57;5.27;;;;;;;3.14;67.98;100767.81;1696446;82;21046;-68
2022/12/08 13:48:39;;;;;;;13.85;5.10;;;;;;;3.15;67.72;100768.17;1711609;82;21034;-68
2022/12/08 13:51:22;;;;;;;17.98;11.93;;;;;;;3.09;67.67;100769.77;1661617;84;21625;-68
2022/12/08 13:53:54;;;;;;;9.85;4.15;;;;;;;3.03;67.69;100762.22;1694076;82;21155;-69
2022/12/08 13:56:21;;;;;;;12.25;5.28;;;;;;;3.00;67.71;100767.53;1700236;82;21127;-69
2022/12/08 13:58:47;;;;;;;8.85;4.33;;;;;;;2.92;67.77;100767.02;1712349;82;21667;-68
2022/12/08 14:01:21;;;;;;;12.33;5.37;;;;;;;2.89;67.83;100771.03;1716738;82;21070;-67
2022/12/08 14:03:57;;;;;;;13.05;5.37;;;;;;;2.86;67.71;100776.36;1703308;82;21145;-69
2022/12/08 14:06:37;;;;;;;13.43;5.65;;;;;;;2.82;67.84;100778.70;1706077;82;21896;-69
2022/12/08 14:09:14;;;;;;;14.00;6.80;;;;;;;2.82;67.92;100780.84;1709355;82;21056;-69
2022/12/08 14:11:46;;;;;;;9.28;4.90;;;;;;;2.81;67.90;100774.41;1708623;82;21565;-68
2022/12/08 14:14:20;;;;;;;12.63;5.42;;;;;;;2.82;67.87;100779.55;1707126;82;21068;-68
2022/12/08 14:16:52;;;;;;;10.93;4.92;;;;;;;2.87;67.85;100779.36;1708939;82;21002;-68
2022/12/08 14:19:27;;;;;;;14.45;6.17;;;;;;;2.84;67.80;100783.38;1714553;82;22189;-67
2022/12/08 14:22:11;;;;;;;13.70;6.10;;;;;;;2.79;68.37;100783.13;1711780;82;21097;-69
2022/12/08 14:24:38;;;;;;;14.75;6.05;;;;;;;2.85;68.44;100778.58;1716625;82;21548;-67
2022/12/08 14:27:07;;;;;;;19.30;7.47;;;;;;;2.81;68.46;100779.60;1721802;82;21046;-67
2022/12/08 14:29:48;;;;;;;12.03;5.58;;;;;;;2.90;68.23;100770.14;1712726;82;21881;-66
2022/12/08 14:32:24;;;;;;;11.75;4.60;;;;;;;2.77;68.58;100770.66;1717791;82;21172;-67
2022/12/08 14:35:08;;;;;;;11.48;5.72;;;;;;;2.79;68.29;100774.03;1716515;82;21663;-68
2022/12/08 14:37:37;;;;;;;8.75;4.75;;;;;;;2.67;68.46;100777.11;1712452;82;21798;-67
2022/12/08 14:40:11;;;;;;;11.38;5.35;;;;;;;2.65;68.40;100778.94;1716075;82;21054;-68
2022/12/08 14:42:47;;;;;;;9.43;4.70;;;;;;;2.57;68.36;100777.09;1692272;82;21073;-68
2022/12/08 14:45:15;;;;;;;11.55;3.90;;;;;;;2.54;68.38;100778.52;1701515;82;21528;-65
2022/12/08 14:47:41;;;;;;;8.73;4.80;;;;;;;2.68;68.11;100783.18;1705158;83;21566;-64
2022/12/08 14:50:37;;;;;;;8.65;4.47;;;;;;;2.79;67.98;100784.43;1700404;82;21080;-64
2022/12/08 14:53:13;;;;;;;11.70;4.30;;;;;;;2.84;67.99;100779.48;1700517;82;21011;-64
2022/12/08 14:55:39;;;;;;;12.07;5.75;;;;;;;2.81;68.44;100777.87;1671054;84;21638;-63
2022/12/08 14:58:06;;;;;;;12.28;5.70;;;;;;;2.78;68.90;100782.72;1715795;81;21179;-64
2022/12/08 15:00:32;;;;;;;10.88;5.42;;;;;;;2.81;68.83;100787.40;1721184;82;21513;-64
2022/12/08 15:03:04;;;;;;;15.48;11.08;;;;;;;2.89;68.58;100782.73;1738544;81;21567;-64
2022/12/08 15:05:31;;;;;;;12.28;5.08;;;;;;;2.91;68.39;100784.84;1718480;82;21075;-64
2022/12/08 15:08:02;;;;;;;11.95;5.35;;;;;;;2.87;68.25;100789.29;1700870;82;21219;-64
2022/12/08 15:10:32;;;;;;;9.80;5.12;;;;;;;2.84;68.26;100784.25;1700626;83;21158;-64
2022/12/08 15:13:11;;;;;;;10.40;4.78;;;;;;;2.82;68.24;100783.91;1701859;83;21589;-63
2022/12/08 15:15:55;;;;;;;11.63;4.80;;;;;;;2.77;68.16;100787.55;1701974;82;21177;-64
2022/12/08 15:18:40;;;;;;;9.85;4.15;;;;;;;2.73;68.02;100795.06;1682563;82;21701;-64
2022/12/08 15:21:08;;;;;;;9.25;4.00;;;;;;;2.72;68.14;100802.48;1717035;82;21060;-63
2022/12/08 15:23:43;;;;;;;9.55;3.60;;;;;;;2.79;68.13;100801.75;1719330;82;21244;-64
2022/12/08 15:26:24;;;;;;;11.22;4.47;;;;;;;2.79;68.20;100799.16;1716719;82;21054;-64
2022/12/08 15:28:51;;;;;;;11.90;8.38;;;;;;;2.75;68.48;100804.09;1709861;82;21083;-64
2022/12/08 15:31:17;;;;;;;8.98;3.52;;;;;;;2.72;68.60;100798.59;1714729;82;21108;-64
2022/12/08 15:33:44;;;;;;;11.28;4.30;;;;;;;2.71;68.74;100799.48;1707214;83;21179;-64
2022/12/08 15:36:11;;;;;;;9.20;4.47;;;;;;;2.69;68.82;100801.31;1712849;82;21256;-64
2022/12/08 15:38:37;;;;;;;14.75;8.15;;;;;;;2.66;68.70;100798.83;1705552;83;21566;-65
2022/12/08 15:41:04;;;;;;;8.40;3.60;;;;;;;2.59;68.64;100798.69;1716482;82;21161;-63
2022/12/08 15:43:31;;;;;;;11.70;5.58;;;;;;;2.55;68.79;100802.30;1715293;82;21235;-64
2022/12/08 15:45:57;;;;;;;6.75;3.70;;;;;;;2.49;68.60;100803.41;1721522;82;21124;-64
2022/12/08 15:48:26;;;;;;;8.30;3.55;;;;;;;2.41;68.74;100802.86;1713795;82;22190;-64
2022/12/08 15:50:53;;;;;;;6.28;3.25;;;;;;;2.40;68.79;100799.42;1714551;82;21030;-64
2022/12/08 15:53:20;;;;;;;7.00;3.37;;;;;;;2.45;68.63;100800.98;1713681;82;21049;-63
2022/12/08 15:55:46;;;;;;;8.73;4.10;;;;;;;2.46;68.49;100798.79;1715857;82;21069;-64
2022/12/08 15:58:22;;;;;;;8.98;4.12;;;;;;;2.45;68.74;100795.78;1713572;82;21590;-64
2022/12/08 16:00:49;;;;;;;;;;;;;;;2.52;68.96;100795.92;1713605;82;21197;-64
2022/12/08 16:03:22;;;;;;;8.60;3.17;;;;;;;2.52;68.99;100802.42;1717305;82;20196;-64
2022/12/08 16:05:49;;;;;;;8.03;3.17;;;;;;;2.49;69.07;100802.53;1705495;82;21104;-65
2022/12/08 16:08:16;;;;;;;8.70;3.62;;;;;;;2.52;69.28;100805.02;1710904;82;21172;-65
2022/12/08 16:10:43;;;;;;;8.00;3.77;;;;;;;2.50;69.16;100805.54;1715229;82;21125;-64
2022/12/08 16:16:04;;;;;;;7.05;3.62;;;;;;;2.43;69.05;100797.60;1699820;82;21113;-68
2022/12/08 16:18:34;;;;;;;8.73;4.25;;;;;;;2.44;69.07;100792.78;1698290;82;21052;-67
2022/12/08 16:21:01;;;;;;;9.65;3.52;;;;;;;2.41;69.01;100795.91;1700355;82;21111;-68
2022/12/08 16:23:28;;;;;;;9.43;4.17;;;;;;;2.41;68.87;100790.70;1746971;81;20991;-68
2022/12/08 16:25:54;;;;;;;11.18;4.47;;;;;;;2.38;69.06;100784.33;1732865;81;21237;-68
2022/12/08 16:28:21;;;;;;;9.43;4.08;;;;;;;2.40;69.00;100786.87;1739450;81;21019;-68
2022/12/08 16:30:47;;;;;;;9.88;4.12;;;;;;;2.44;68.81;100784.98;1719329;82;21015;-68
2022/12/08 16:33:14;;;;;;;8.98;4.17;;;;;;;2.50;68.83;100773.06;1712364;82;21057;-68
2022/12/08 16:35:41;;;;;;;8.05;3.65;;;;;;;2.58;68.93;100784.00;1716088;82;21065;-69
2022/12/08 16:38:07;;;;;;;13.85;9.50;;;;;;;2.65;68.94;100783.30;1702701;82;21291;-69
2022/12/08 16:42:38;;;;;;;11.63;4.70;;;;;;;2.65;68.93;100778.10;1709851;82;21059;-68
2022/12/08 16:43:02;;;;;;;9.25;4.58;;;;;;;2.68;68.86;100780.58;1708181;82;21177;-69
2022/12/08 16:45:29;;;;;;;8.80;3.77;;;;;;;2.67;68.85;100786.20;1717395;82;21120;-67
2022/12/08 16:47:59;;;;;;;15.30;10.00;;;;;;;2.77;68.74;100777.16;1709689;82;21031;-68
2022/12/08 16:50:31;;;;;;;10.90;5.45;;;;;;;2.78;68.57;100784.48;1711256;82;21318;-68
2022/12/08 16:53:02;;;;;;;10.93;4.90;;;;;;;2.65;68.90;100785.44;1736570;81;21912;-69
2022/12/08 16:55:29;;;;;;;11.95;5.08;;;;;;;2.62;68.90;100778.22;1708612;82;21269;-68
2022/12/08 16:57:57;;;;;;;12.43;5.72;;;;;;;2.60;68.94;100779.58;1733800;81;21105;-68
2022/12/08 17:00:27;;;;;;;10.30;6.05;;;;;;;2.57;68.85;100775.80;1731523;81;21116;-68
2022/12/08 17:02:53;;;;;;;11.80;5.58;;;;;;;2.56;68.90;100773.66;1720721;81;21220;-68
2022/12/08 17:05:22;;;;;;;9.95;4.85;;;;;;;2.65;68.73;100772.44;1709749;81;21057;-68
2022/12/08 17:07:51;;;;;;;9.55;4.35;;;;;;;2.68;68.55;100771.02;1704277;82;21061;-68
2022/12/08 17:10:21;;;;;;;10.58;5.03;;;;;;;2.77;68.27;100774.55;1704162;82;21567;-68
2022/12/08 17:12:49;;;;;;;9.55;4.92;;;;;;;2.76;68.44;100766.36;1689241;83;21085;-68
2022/12/08 17:15:19;;;;;;;11.40;5.22;;;;;;;2.86;68.29;100769.86;1735910;81;21131;-69
2022/12/08 17:17:46;;;;;;;11.97;6.45;;;;;;;2.76;68.55;100768.95;1740539;81;21613;-68
2022/12/08 17:20:15;;;;;;;15.43;5.67;;;;;;;2.71;68.75;100769.60;1734765;81;21571;-68
2022/12/08 17:22:42;;;;;;;14.20;7.20;;;;;;;2.77;68.86;100765.46;1730693;81;21605;-68
2022/12/08 17:25:09;;;;;;;20.48;13.15;;;;;;;2.82;68.69;100754.02;1737722;81;21058;-68
2022/12/08 17:27:36;;;;;;;10.13;4.47;;;;;;;2.71;69.00;100760.50;1744109;81;21144;-68
2022/12/08 17:30:08;;;;;;;11.10;4.50;;;;;;;2.75;68.92;100754.72;1734559;81;21030;-69
2022/12/08 17:32:36;;;;;;;15.43;5.50;;;;;;;2.78;68.62;100759.34;1734062;81;21098;-68
2022/12/08 17:35:03;;;;;;;10.90;4.92;;;;;;;2.74;68.41;100759.52;1712877;81;21133;-68
2022/12/08 17:37:30;;;;;;;8.70;4.10;;;;;;;2.71;68.36;100748.81;1736777;81;21045;-68
2022/12/08 17:39:56;;;;;;;8.25;3.95;;;;;;;2.74;68.42;100748.69;1752227;81;21747;-68
2022/12/08 17:42:24;;;;;;;10.75;4.60;;;;;;;2.82;68.44;100752.72;1719359;81;21062;-68
2022/12/08 17:44:52;;;;;;;10.58;4.37;;;;;;;2.88;68.60;100748.57;1724972;81;21074;-68
2022/12/08 17:47:19;;;;;;;16.27;11.12;;;;;;;2.94;68.60;100750.89;1728657;81;21060;-68
2022/12/08 17:49:46;;;;;;;8.73;4.12;;;;;;;2.93;68.48;100749.22;1737205;81;21049;-69
2022/12/08 17:52:12;;;;;;;8.63;4.60;;;;;;;2.79;68.81;100745.44;1734107;81;21272;-69
2022/12/08 17:54:39;;;;;;;13.38;5.17;;;;;;;2.73;68.95;100750.89;1739558;81;21636;-68
2022/12/08 17:57:06;;;;;;;10.32;5.40;;;;;;;2.67;68.88;100747.23;1713605;83;21081;-68
2022/12/08 17:59:32;;;;;;;12.63;6.30;;;;;;;2.61;69.04;100752.70;1712413;82;21112;-69
2022/12/08 18:01:59;;;;;;;11.33;6.60;;;;;;;2.56;69.18;100745.55;1701538;82;21610;-69
2022/12/08 18:04:27;;;;;;;12.30;6.47;;;;;;;2.50;69.31;100754.88;1712614;82;22023;-68
2022/12/08 18:06:53;;;;;;;13.05;6.35;;;;;;;2.46;69.28;100745.54;1716347;82;21017;-68
2022/12/08 18:09:20;;;;;;;17.27;11.68;;;;;;;2.40;69.48;100748.78;1683509;83;21081;-69
2022/12/08 18:11:47;;;;;;;19.07;13.30;;;;;;;2.45;69.55;100746.44;1721597;82;21077;-68
2022/12/08 18:14:14;;;;;;;10.98;4.60;;;;;;;2.55;69.55;100739.95;1707602;82;21031;-69
2022/12/08 18:16:43;;;;;;;11.33;4.95;;;;;;;2.77;69.15;100751.17;1709387;82;21249;-67
2022/12/08 18:19:11;;;;;;;10.60;4.78;;;;;;;2.71;69.30;100747.52;1707769;82;21046;-69
2022/12/08 18:21:38;;;;;;;19.98;12.18;;;;;;;2.78;69.02;100744.20;1710817;82;21160;-69
2022/12/08 18:24:05;;;;;;;12.18;5.53;;;;;;;2.74;69.12;100741.33;1717633;82;21081;-68
2022/12/08 18:26:32;;;;;;;13.05;5.97;;;;;;;2.70;69.24;100749.70;1703372;83;21071;-68
2022/12/08 18:28:59;;;;;;;21.62;13.83;;;;;;;2.65;69.25;100750.81;1712333;82;21923;-68
2022/12/08 18:31:27;;;;;;;9.75;4.20;;;;;;;2.63;69.59;100752.64;1695487;82;20994;-68
2022/12/08 18:33:54;;;;;;;12.75;5.87;;;;;;;2.65;69.62;100755.55;1709452;82;21623;-68
2022/12/08 18:36:23;;;;;;;8.40;4.60;;;;;;;2.64;69.52;100754.31;1715481;82;21093;-68
2022/12/08 18:38:50;;;;;;;10.28;4.67;;;;;;;2.60;69.49;100749.23;1724413;82;21090;-68
2022/12/08 18:41:23;;;;;;;10.25;4.62;;;;;;;2.59;69.32;100751.92;1701845;82;21257;-68
2022/12/08 18:43:53;;;;;;;10.95;4.80;;;;;;;2.61;69.25;100739.71;1704870;82;21722;-67
2022/12/08 18:46:20;;;;;;;10.90;4.58;;;;;;;2.66;69.33;100743.42;1698175;82;21066;-67
2022/12/08 18:48:47;;;;;;;12.50;4.95;;;;;;;2.69;69.39;100745.44;1696643;83;21125;-68
2022/12/08 18:51:22;;;;;;;18.55;11.12;;;;;;;2.55;69.85;100733.45;1700720;83;21177;-68
2022/12/08 18:53:49;;;;;;;11.25;4.80;;;;;;;2.51;69.95;100731.91;1696057;82;22125;-69
2022/12/08 18:56:26;;;;;;;9.50;4.28;;;;;;;2.49;70.16;100729.38;1702806;83;21860;-69
2022/12/08 18:58:56;;;;;;;8.40;4.00;;;;;;;2.49;70.24;100719.41;1694111;84;21058;-68
2022/12/08 19:01:23;;;;;;;16.50;10.63;;;;;;;2.53;69.91;100720.99;1696506;83;21713;-68
2022/12/08 19:03:49;;;;;;;10.18;4.72;;;;;;;2.56;69.76;100719.11;1701190;83;22247;-69
2022/12/08 19:06:16;;;;;;;8.85;4.45;;;;;;;2.64;69.55;100716.64;1698246;82;21532;-68
2022/12/08 19:08:44;;;;;;;10.20;4.25;;;;;;;2.71;69.35;100716.33;1694923;82;21119;-68
2022/12/08 19:11:22;;;;;;;10.88;4.83;;;;;;;2.78;69.24;100716.45;1699368;82;21578;-68
2022/12/08 19:13:49;;;;;;;8.40;4.60;;;;;;;2.73;68.99;100708.02;1727080;81;21010;-68
2022/12/08 19:16:16;;;;;;;10.53;6.00;;;;;;;2.56;69.34;100704.82;1710707;81;21150;-68
2022/12/08 19:18:42;;;;;;;10.55;4.83;;;;;;;2.65;69.40;100708.78;1726034;81;21265;-68
2022/12/08 19:21:09;;;;;;;16.12;10.10;;;;;;;2.59;69.33;100708.59;1734236;81;20983;-69
2022/12/08 19:23:36;;;;;;;11.68;4.25;;;;;;;2.57;69.13;100699.16;1700324;83;21043;-68
2022/12/08 19:26:03;;;;;;;8.53;4.20;;;;;;;2.50;69.09;100702.93;1715271;81;21066;-68
2022/12/08 19:28:30;;;;;;;9.63;4.67;;;;;;;2.46;69.17;100697.02;1721078;81;21151;-69
2022/12/08 19:30:56;;;;;;;10.30;4.17;;;;;;;2.27;69.67;100696.94;1711218;81;21154;-68
2022/12/08 19:33:23;;;;;;;16.85;10.70;;;;;;;2.19;69.78;100697.70;1724477;81;21618;-67
2022/12/08 19:35:49;;;;;;;10.23;4.22;;;;;;;2.14;69.85;100697.03;1703610;82;21064;-68
2022/12/08 19:38:16;;;;;;;9.95;4.40;;;;;;;2.09;70.05;100703.70;1698806;82;21148;-68
2022/12/08 19:46:15;;;;;;;12.15;4.58;;;;;;;2.33;70.11;100710.95;1703093;82;21099;-66